sensor_id;sensor_type;location;lat;lon;timestamp;temperature;humidity
66582;SHT31;53438;48.898;2.308;2024-01-07T00:01:33;5.62;81.62
66582;SHT31;53438;48.898;2.308;2024-01-07T00:03:58;5.51;81.37
66582;SHT31;53438;48.898;2.308;2024-01-07T00:06:23;5.60;81.39
66582;SHT31;53438;48.898;2.308;2024-01-07T00:08:49;5.56;81.55
66582;SHT31;53438;48.898;2.308;2024-01-07T00:11:14;5.56;81.36
66582;SHT31;53438;48.898;2.308;2024-01-07T00:13:40;5.56;81.57
66582;SHT31;53438;48.898;2.308;2024-01-07T00:16:06;5.62;81.50
66582;SHT31;53438;48.898;2.308;2024-01-07T00:18:31;5.69;81.26
66582;SHT31;53438;48.898;2.308;2024-01-07T00:20:57;5.56;81.52
66582;SHT31;53438;48.898;2.308;2024-01-07T00:23:22;5.68;81.75
66582;SHT31;53438;48.898;2.308;2024-01-07T00:25:48;5.59;81.61
66582;SHT31;53438;48.898;2.308;2024-01-07T00:28:13;5.49;81.69
66582;SHT31;53438;48.898;2.308;2024-01-07T00:30:39;5.49;81.59
66582;SHT31;53438;48.898;2.308;2024-01-07T00:33:04;5.44;81.43
66582;SHT31;53438;48.898;2.308;2024-01-07T00:35:29;5.45;81.45
66582;SHT31;53438;48.898;2.308;2024-01-07T00:37:55;5.44;81.31
66582;SHT31;53438;48.898;2.308;2024-01-07T00:40:24;5.47;81.46
66582;SHT31;53438;48.898;2.308;2024-01-07T00:42:50;5.39;81.06
66582;SHT31;53438;48.898;2.308;2024-01-07T00:45:16;5.44;80.97
66582;SHT31;53438;48.898;2.308;2024-01-07T00:47:41;5.42;81.05
66582;SHT31;53438;48.898;2.308;2024-01-07T00:50:07;5.49;80.93
66582;SHT31;53438;48.898;2.308;2024-01-07T00:52:33;5.49;80.89
66582;SHT31;53438;48.898;2.308;2024-01-07T00:55:03;5.51;81.02
66582;SHT31;53438;48.898;2.308;2024-01-07T00:57:29;5.49;80.58
66582;SHT31;53438;48.898;2.308;2024-01-07T00:59:58;5.37;80.54
66582;SHT31;53438;48.898;2.308;2024-01-07T04:01:20;4.90;76.89
66582;SHT31;53438;48.898;2.308;2024-01-07T04:03:45;4.88;76.49
66582;SHT31;53438;48.898;2.308;2024-01-07T04:06:10;4.83;76.66
66582;SHT31;53438;48.898;2.308;2024-01-07T04:08:36;4.93;76.69
66582;SHT31;53438;48.898;2.308;2024-01-07T04:11:02;4.77;76.52
66582;SHT31;53438;48.898;2.308;2024-01-07T04:13:27;4.81;76.57
66582;SHT31;53438;48.898;2.308;2024-01-07T04:15:53;4.75;76.65
66582;SHT31;53438;48.898;2.308;2024-01-07T04:18:18;4.66;76.96
66582;SHT31;53438;48.898;2.308;2024-01-07T04:20:43;4.75;76.63
66582;SHT31;53438;48.898;2.308;2024-01-07T04:23:09;4.79;76.50
66582;SHT31;53438;48.898;2.308;2024-01-07T04:25:34;4.73;76.65
66582;SHT31;53438;48.898;2.308;2024-01-07T04:27:59;4.75;76.95
66582;SHT31;53438;48.898;2.308;2024-01-07T04:30:25;4.73;76.90
66582;SHT31;53438;48.898;2.308;2024-01-07T04:32:50;4.70;76.70
66582;SHT31;53438;48.898;2.308;2024-01-07T04:35:15;4.70;76.81
66582;SHT31;53438;48.898;2.308;2024-01-07T04:37:42;4.65;76.94
66582;SHT31;53438;48.898;2.308;2024-01-07T04:40:07;4.65;77.01
66582;SHT31;53438;48.898;2.308;2024-01-07T04:42:33;4.70;77.22
66582;SHT31;53438;48.898;2.308;2024-01-07T04:44:59;4.60;76.99
66582;SHT31;53438;48.898;2.308;2024-01-07T04:47:32;4.60;77.17
66582;SHT31;53438;48.898;2.308;2024-01-07T04:49:59;4.79;77.34
66582;SHT31;53438;48.898;2.308;2024-01-07T04:52:25;4.60;76.93
66582;SHT31;53438;48.898;2.308;2024-01-07T04:54:52;4.52;77.14
66582;SHT31;53438;48.898;2.308;2024-01-07T04:57:18;4.59;77.13
66582;SHT31;53438;48.898;2.308;2024-01-07T04:59:43;4.63;77.40
66582;SHT31;53438;48.898;2.308;2024-01-07T05:02:09;4.62;77.12
66582;SHT31;53438;48.898;2.308;2024-01-07T05:04:35;4.70;77.23
66582;SHT31;53438;48.898;2.308;2024-01-07T05:07:00;4.80;76.84
66582;SHT31;53438;48.898;2.308;2024-01-07T05:09:26;4.79;77.03
66582;SHT31;53438;48.898;2.308;2024-01-07T05:11:51;4.66;77.34
66582;SHT31;53438;48.898;2.308;2024-01-07T05:14:16;4.62;77.52
66582;SHT31;53438;48.898;2.308;2024-01-07T05:16:42;4.62;77.59
66582;SHT31;53438;48.898;2.308;2024-01-07T05:19:07;4.57;77.82
66582;SHT31;53438;48.898;2.308;2024-01-07T05:21:32;4.69;77.72
66582;SHT31;53438;48.898;2.308;2024-01-07T05:23:58;4.72;77.44
66582;SHT31;53438;48.898;2.308;2024-01-07T05:26:23;4.76;77.52
66582;SHT31;53438;48.898;2.308;2024-01-07T05:28:48;4.77;77.36
66582;SHT31;53438;48.898;2.308;2024-01-07T05:31:17;4.75;77.50
66582;SHT31;53438;48.898;2.308;2024-01-07T05:33:45;4.77;77.18
66582;SHT31;53438;48.898;2.308;2024-01-07T05:36:12;4.66;77.42
66582;SHT31;53438;48.898;2.308;2024-01-07T05:38:38;4.67;77.70
66582;SHT31;53438;48.898;2.308;2024-01-07T05:41:04;4.69;77.69
66582;SHT31;53438;48.898;2.308;2024-01-07T05:43:30;4.66;77.96
66582;SHT31;53438;48.898;2.308;2024-01-07T05:45:55;4.60;78.09
66582;SHT31;53438;48.898;2.308;2024-01-07T05:48:22;4.62;78.52
66582;SHT31;53438;48.898;2.308;2024-01-07T05:50:47;4.63;78.45
66582;SHT31;53438;48.898;2.308;2024-01-07T05:53:12;4.60;78.68
66582;SHT31;53438;48.898;2.308;2024-01-07T05:55:38;4.66;78.55
66582;SHT31;53438;48.898;2.308;2024-01-07T05:58:04;4.73;78.57
66582;SHT31;53438;48.898;2.308;2024-01-07T06:00:29;4.52;78.72
66582;SHT31;53438;48.898;2.308;2024-01-07T06:02:54;4.56;79.08
66582;SHT31;53438;48.898;2.308;2024-01-07T06:05:20;4.56;79.08
66582;SHT31;53438;48.898;2.308;2024-01-07T06:07:45;4.65;79.07
66582;SHT31;53438;48.898;2.308;2024-01-07T06:10:10;4.66;79.10
66582;SHT31;53438;48.898;2.308;2024-01-07T06:12:36;4.75;79.10
66582;SHT31;53438;48.898;2.308;2024-01-07T06:15:01;4.84;79.12
66582;SHT31;53438;48.898;2.308;2024-01-07T06:17:26;4.72;79.18
66582;SHT31;53438;48.898;2.308;2024-01-07T06:19:52;4.75;79.12
66582;SHT31;53438;48.898;2.308;2024-01-07T06:22:17;4.70;79.67
66582;SHT31;53438;48.898;2.308;2024-01-07T06:24:43;4.62;80.07
66582;SHT31;53438;48.898;2.308;2024-01-07T06:27:08;4.55;80.44
66582;SHT31;53438;48.898;2.308;2024-01-07T06:29:33;4.48;80.52
66582;SHT31;53438;48.898;2.308;2024-01-07T06:31:59;4.56;80.60
66582;SHT31;53438;48.898;2.308;2024-01-07T06:34:24;4.55;80.70
66582;SHT31;53438;48.898;2.308;2024-01-07T06:36:49;4.63;80.76
66582;SHT31;53438;48.898;2.308;2024-01-07T06:39:15;4.56;80.92
66582;SHT31;53438;48.898;2.308;2024-01-07T06:41:40;4.69;81.02
66582;SHT31;53438;48.898;2.308;2024-01-07T06:44:05;4.49;81.13
66582;SHT31;53438;48.898;2.308;2024-01-07T06:46:30;4.57;81.37
66582;SHT31;53438;48.898;2.308;2024-01-07T06:48:56;4.46;81.51
66582;SHT31;53438;48.898;2.308;2024-01-07T06:51:21;4.45;81.63
66582;SHT31;53438;48.898;2.308;2024-01-07T06:53:47;4.56;81.88
66582;SHT31;53438;48.898;2.308;2024-01-07T06:56:13;4.62;81.40
66582;SHT31;53438;48.898;2.308;2024-01-07T06:58:38;4.59;81.43
66582;SHT31;53438;48.898;2.308;2024-01-07T07:01:06;4.66;81.16
66582;SHT31;53438;48.898;2.308;2024-01-07T07:03:31;4.62;81.28
66582;SHT31;53438;48.898;2.308;2024-01-07T07:05:57;4.56;81.26
66582;SHT31;53438;48.898;2.308;2024-01-07T07:08:22;4.44;81.48
66582;SHT31;53438;48.898;2.308;2024-01-07T07:10:47;4.42;81.55
66582;SHT31;53438;48.898;2.308;2024-01-07T07:13:13;4.39;81.06
66582;SHT31;53438;48.898;2.308;2024-01-07T07:15:39;4.50;80.77
66582;SHT31;53438;48.898;2.308;2024-01-07T07:18:04;4.60;80.92
66582;SHT31;53438;48.898;2.308;2024-01-07T07:20:30;4.52;80.54
66582;SHT31;53438;48.898;2.308;2024-01-07T07:22:55;4.35;80.78
66582;SHT31;53438;48.898;2.308;2024-01-07T07:25:20;4.42;80.72
66582;SHT31;53438;48.898;2.308;2024-01-07T07:27:46;4.45;80.62
66582;SHT31;53438;48.898;2.308;2024-01-07T07:30:11;4.39;80.60
66582;SHT31;53438;48.898;2.308;2024-01-07T07:32:39;4.45;80.58
66582;SHT31;53438;48.898;2.308;2024-01-07T07:35:05;4.56;80.40
66582;SHT31;53438;48.898;2.308;2024-01-07T07:37:32;4.62;80.09
66582;SHT31;53438;48.898;2.308;2024-01-07T07:39:57;4.60;80.11
66582;SHT31;53438;48.898;2.308;2024-01-07T07:42:23;4.65;79.83
66582;SHT31;53438;48.898;2.308;2024-01-07T07:44:48;4.62;79.84
66582;SHT31;53438;48.898;2.308;2024-01-07T07:47:13;4.66;79.45
66582;SHT31;53438;48.898;2.308;2024-01-07T07:49:39;4.52;78.70
66582;SHT31;53438;48.898;2.308;2024-01-07T07:52:09;4.60;78.45
66582;SHT31;53438;48.898;2.308;2024-01-07T07:54:36;4.60;78.58
66582;SHT31;53438;48.898;2.308;2024-01-07T07:57:02;4.69;78.25
66582;SHT31;53438;48.898;2.308;2024-01-07T07:59:27;4.72;77.79
66582;SHT31;53438;48.898;2.308;2024-01-07T08:01:53;4.63;77.37
66582;SHT31;53438;48.898;2.308;2024-01-07T08:04:18;4.53;77.03
66582;SHT31;53438;48.898;2.308;2024-01-07T08:06:43;4.59;77.16
66582;SHT31;53438;48.898;2.308;2024-01-07T08:09:10;4.52;76.76
66582;SHT31;53438;48.898;2.308;2024-01-07T08:11:36;4.46;76.76
66582;SHT31;53438;48.898;2.308;2024-01-07T08:14:01;4.53;76.89
66582;SHT31;53438;48.898;2.308;2024-01-07T08:16:27;4.55;76.96
66582;SHT31;53438;48.898;2.308;2024-01-07T08:18:52;4.59;76.89
66582;SHT31;53438;48.898;2.308;2024-01-07T08:21:21;4.57;77.24
66582;SHT31;53438;48.898;2.308;2024-01-07T08:23:47;4.70;76.99
66582;SHT31;53438;48.898;2.308;2024-01-07T08:26:18;4.59;76.98
66582;SHT31;53438;48.898;2.308;2024-01-07T08:28:43;4.50;77.27
66582;SHT31;53438;48.898;2.308;2024-01-07T08:31:09;4.49;77.60
66582;SHT31;53438;48.898;2.308;2024-01-07T08:33:34;4.56;77.21
66582;SHT31;53438;48.898;2.308;2024-01-07T08:35:59;4.75;77.12
66582;SHT31;53438;48.898;2.308;2024-01-07T08:38:25;4.57;76.96
66582;SHT31;53438;48.898;2.308;2024-01-07T08:40:50;4.45;77.12
66582;SHT31;53438;48.898;2.308;2024-01-07T08:43:15;4.57;76.78
66582;SHT31;53438;48.898;2.308;2024-01-07T08:45:41;4.55;76.39
66582;SHT31;53438;48.898;2.308;2024-01-07T08:48:07;4.48;75.99
66582;SHT31;53438;48.898;2.308;2024-01-07T08:50:32;4.52;75.59
66582;SHT31;53438;48.898;2.308;2024-01-07T08:52:57;4.56;75.23
66582;SHT31;53438;48.898;2.308;2024-01-07T08:55:23;4.56;74.83
66582;SHT31;53438;48.898;2.308;2024-01-07T08:57:48;4.57;74.83
66582;SHT31;53438;48.898;2.308;2024-01-07T09:00:14;4.46;74.77
66582;SHT31;53438;48.898;2.308;2024-01-07T09:02:40;4.52;74.81
66582;SHT31;53438;48.898;2.308;2024-01-07T09:05:05;4.53;74.50
66582;SHT31;53438;48.898;2.308;2024-01-07T09:07:31;4.55;73.91
66582;SHT31;53438;48.898;2.308;2024-01-07T09:09:57;4.55;73.85
66582;SHT31;53438;48.898;2.308;2024-01-07T09:12:25;4.42;74.33
66582;SHT31;53438;48.898;2.308;2024-01-07T09:14:50;4.62;74.25
66582;SHT31;53438;48.898;2.308;2024-01-07T09:17:15;4.60;73.57
66582;SHT31;53438;48.898;2.308;2024-01-07T09:19:42;4.44;73.93
66582;SHT31;53438;48.898;2.308;2024-01-07T09:22:07;4.38;73.68
66582;SHT31;53438;48.898;2.308;2024-01-07T09:24:33;4.39;73.21
66582;SHT31;53438;48.898;2.308;2024-01-07T09:26:58;4.46;72.75
66582;SHT31;53438;48.898;2.308;2024-01-07T09:29:24;4.52;72.59
66582;SHT31;53438;48.898;2.308;2024-01-07T09:31:50;4.48;72.63
66582;SHT31;53438;48.898;2.308;2024-01-07T09:34:15;4.55;72.59
66582;SHT31;53438;48.898;2.308;2024-01-07T09:36:40;4.52;72.81
66582;SHT31;53438;48.898;2.308;2024-01-07T09:39:07;4.44;73.26
66582;SHT31;53438;48.898;2.308;2024-01-07T09:41:32;4.45;73.53
66582;SHT31;53438;48.898;2.308;2024-01-07T09:43:59;4.52;73.25
66582;SHT31;53438;48.898;2.308;2024-01-07T09:46:25;4.70;73.20
66582;SHT31;53438;48.898;2.308;2024-01-07T09:48:51;4.49;73.62
66582;SHT31;53438;48.898;2.308;2024-01-07T09:51:20;4.52;73.61
66582;SHT31;53438;48.898;2.308;2024-01-07T09:53:46;4.49;73.90
66582;SHT31;53438;48.898;2.308;2024-01-07T09:56:21;4.60;73.82
66582;SHT31;53438;48.898;2.308;2024-01-07T09:58:48;4.56;73.97
66582;SHT31;53438;48.898;2.308;2024-01-07T10:01:16;4.48;74.21
66582;SHT31;53438;48.898;2.308;2024-01-07T10:03:42;4.69;73.93
66582;SHT31;53438;48.898;2.308;2024-01-07T10:06:07;4.62;73.56
66582;SHT31;53438;48.898;2.308;2024-01-07T10:08:32;4.62;73.98
66582;SHT31;53438;48.898;2.308;2024-01-07T10:10:58;4.65;74.05
66582;SHT31;53438;48.898;2.308;2024-01-07T10:13:23;4.44;74.36
66582;SHT31;53438;48.898;2.308;2024-01-07T10:15:49;4.41;74.71
66582;SHT31;53438;48.898;2.308;2024-01-07T10:18:14;4.39;74.82
66582;SHT31;53438;48.898;2.308;2024-01-07T10:20:40;4.46;74.65
66582;SHT31;53438;48.898;2.308;2024-01-07T10:23:05;4.59;74.57
66582;SHT31;53438;48.898;2.308;2024-01-07T10:25:33;4.70;74.16
66582;SHT31;53438;48.898;2.308;2024-01-07T10:27:59;4.77;73.99
66582;SHT31;53438;48.898;2.308;2024-01-07T10:30:25;4.59;74.27
66582;SHT31;53438;48.898;2.308;2024-01-07T10:32:55;4.60;74.34
66582;SHT31;53438;48.898;2.308;2024-01-07T10:35:21;4.77;74.15
66582;SHT31;53438;48.898;2.308;2024-01-07T10:37:50;4.87;73.31
66582;SHT31;53438;48.898;2.308;2024-01-07T10:40:15;4.69;73.40
66582;SHT31;53438;48.898;2.308;2024-01-07T10:42:43;4.70;73.71
66582;SHT31;53438;48.898;2.308;2024-01-07T10:45:09;4.81;73.54
66582;SHT31;53438;48.898;2.308;2024-01-07T10:47:36;5.00;73.47
66582;SHT31;53438;48.898;2.308;2024-01-07T10:50:02;5.01;73.27
66582;SHT31;53438;48.898;2.308;2024-01-07T10:52:28;4.97;73.47
66582;SHT31;53438;48.898;2.308;2024-01-07T10:54:56;4.98;73.47
66582;SHT31;53438;48.898;2.308;2024-01-07T10:57:34;4.98;73.47
66582;SHT31;53438;48.898;2.308;2024-01-07T11:00:02;4.97;73.82
66582;SHT31;53438;48.898;2.308;2024-01-07T11:02:38;5.01;73.80
66582;SHT31;53438;48.898;2.308;2024-01-07T11:05:12;5.08;72.97
66582;SHT31;53438;48.898;2.308;2024-01-07T11:07:44;4.93;72.94
66582;SHT31;53438;48.898;2.308;2024-01-07T11:10:25;4.86;73.29
66582;SHT31;53438;48.898;2.308;2024-01-07T11:12:55;4.90;73.13
66582;SHT31;53438;48.898;2.308;2024-01-07T11:18:17;4.86;73.75
66582;SHT31;53438;48.898;2.308;2024-01-07T11:20:44;4.79;73.75
66582;SHT31;53438;48.898;2.308;2024-01-07T11:23:30;4.81;73.67
66582;SHT31;53438;48.898;2.308;2024-01-07T11:25:57;4.88;73.60
66582;SHT31;53438;48.898;2.308;2024-01-07T11:31:07;4.46;74.94
66582;SHT31;53438;48.898;2.308;2024-01-07T11:33:34;4.44;75.53
66582;SHT31;53438;48.898;2.308;2024-01-07T11:36:02;4.46;75.55
66582;SHT31;53438;48.898;2.308;2024-01-07T11:38:28;4.69;75.28
66582;SHT31;53438;48.898;2.308;2024-01-07T11:40:55;4.67;74.89
66582;SHT31;53438;48.898;2.308;2024-01-07T11:43:21;4.67;74.83
66582;SHT31;53438;48.898;2.308;2024-01-07T11:45:49;4.70;74.98
66582;SHT31;53438;48.898;2.308;2024-01-07T11:48:14;4.76;74.84
66582;SHT31;53438;48.898;2.308;2024-01-07T11:50:41;4.75;74.83
66582;SHT31;53438;48.898;2.308;2024-01-07T11:53:07;4.70;75.27
66582;SHT31;53438;48.898;2.308;2024-01-07T11:55:33;4.67;75.41
66582;SHT31;53438;48.898;2.308;2024-01-07T11:58:03;4.70;75.58
66582;SHT31;53438;48.898;2.308;2024-01-07T12:00:33;4.63;75.77
66582;SHT31;53438;48.898;2.308;2024-01-07T12:02:59;4.67;75.89
66582;SHT31;53438;48.898;2.308;2024-01-07T12:05:25;4.62;75.93
66582;SHT31;53438;48.898;2.308;2024-01-07T12:07:51;4.62;76.17
66582;SHT31;53438;48.898;2.308;2024-01-07T12:10:16;4.67;76.27
66582;SHT31;53438;48.898;2.308;2024-01-07T12:12:43;4.60;76.57
66582;SHT31;53438;48.898;2.308;2024-01-07T12:15:09;4.62;76.70
66582;SHT31;53438;48.898;2.308;2024-01-07T12:17:34;4.69;76.37
66582;SHT31;53438;48.898;2.308;2024-01-07T12:20:00;4.57;76.54
66582;SHT31;53438;48.898;2.308;2024-01-07T12:22:28;4.50;76.85
66582;SHT31;53438;48.898;2.308;2024-01-07T12:25:10;4.29;77.78
66582;SHT31;53438;48.898;2.308;2024-01-07T12:27:36;4.24;78.41
66582;SHT31;53438;48.898;2.308;2024-01-07T12:30:02;4.28;78.27
66582;SHT31;53438;48.898;2.308;2024-01-07T12:32:30;4.38;78.07
66582;SHT31;53438;48.898;2.308;2024-01-07T12:34:57;4.36;78.01
66582;SHT31;53438;48.898;2.308;2024-01-07T12:37:26;4.28;78.31
66582;SHT31;53438;48.898;2.308;2024-01-07T12:39:52;4.39;77.70
66582;SHT31;53438;48.898;2.308;2024-01-07T12:42:17;4.48;77.88
66582;SHT31;53438;48.898;2.308;2024-01-07T12:44:43;4.59;77.53
66582;SHT31;53438;48.898;2.308;2024-01-07T12:47:08;4.73;77.24
66582;SHT31;53438;48.898;2.308;2024-01-07T12:49:34;4.67;77.38
66582;SHT31;53438;48.898;2.308;2024-01-07T12:51:59;4.69;77.28
66582;SHT31;53438;48.898;2.308;2024-01-07T12:54:25;4.65;77.41
66582;SHT31;53438;48.898;2.308;2024-01-07T12:56:50;4.69;77.18
66582;SHT31;53438;48.898;2.308;2024-01-07T12:59:16;4.73;77.04
66582;SHT31;53438;48.898;2.308;2024-01-07T13:01:42;4.77;76.81
66582;SHT31;53438;48.898;2.308;2024-01-07T13:04:07;4.56;77.22
66582;SHT31;53438;48.898;2.308;2024-01-07T13:06:34;4.67;77.19
66582;SHT31;53438;48.898;2.308;2024-01-07T13:09:00;4.75;76.81
66582;SHT31;53438;48.898;2.308;2024-01-07T13:11:25;4.65;77.08
66582;SHT31;53438;48.898;2.308;2024-01-07T13:13:50;4.75;76.86
66582;SHT31;53438;48.898;2.308;2024-01-07T13:16:16;4.76;76.65
66582;SHT31;53438;48.898;2.308;2024-01-07T13:18:43;4.80;76.47
66582;SHT31;53438;48.898;2.308;2024-01-07T13:21:08;4.87;76.32
66582;SHT31;53438;48.898;2.308;2024-01-07T13:23:33;4.69;76.68
66582;SHT31;53438;48.898;2.308;2024-01-07T13:25:59;4.46;77.19
66582;SHT31;53438;48.898;2.308;2024-01-07T13:28:27;4.56;77.28
66582;SHT31;53438;48.898;2.308;2024-01-07T13:30:52;4.49;77.58
66582;SHT31;53438;48.898;2.308;2024-01-07T13:33:18;4.63;77.32
66582;SHT31;53438;48.898;2.308;2024-01-07T13:35:43;4.59;77.26
66582;SHT31;53438;48.898;2.308;2024-01-07T13:38:09;4.72;76.94
66582;SHT31;53438;48.898;2.308;2024-01-07T13:40:35;4.88;76.42
66582;SHT31;53438;48.898;2.308;2024-01-07T13:43:00;4.83;76.18
66582;SHT31;53438;48.898;2.308;2024-01-07T13:45:26;4.79;76.23
66582;SHT31;53438;48.898;2.308;2024-01-07T13:47:51;4.53;76.94
66582;SHT31;53438;48.898;2.308;2024-01-07T13:50:16;4.48;77.16
66582;SHT31;53438;48.898;2.308;2024-01-07T13:52:43;4.55;77.24
66582;SHT31;53438;48.898;2.308;2024-01-07T13:55:08;4.62;77.02
66582;SHT31;53438;48.898;2.308;2024-01-07T13:57:35;4.77;76.77
66582;SHT31;53438;48.898;2.308;2024-01-07T14:00:00;4.62;76.98
66582;SHT31;53438;48.898;2.308;2024-01-07T14:02:33;4.81;76.52
66582;SHT31;53438;48.898;2.308;2024-01-07T14:04:58;4.93;75.81
66582;SHT31;53438;48.898;2.308;2024-01-07T14:07:24;4.83;76.17
66582;SHT31;53438;48.898;2.308;2024-01-07T14:09:51;4.88;76.24
66582;SHT31;53438;48.898;2.308;2024-01-07T14:12:17;4.79;76.14
66582;SHT31;53438;48.898;2.308;2024-01-07T14:14:42;4.79;76.59
66582;SHT31;53438;48.898;2.308;2024-01-07T14:17:08;4.83;76.58
66582;SHT31;53438;48.898;2.308;2024-01-07T14:19:33;4.66;77.13
66582;SHT31;53438;48.898;2.308;2024-01-07T14:21:58;4.57;77.56
66582;SHT31;53438;48.898;2.308;2024-01-07T14:24:24;4.67;77.45
66582;SHT31;53438;48.898;2.308;2024-01-07T14:26:49;4.70;77.21
66582;SHT31;53438;48.898;2.308;2024-01-07T14:29:15;4.73;77.04
66582;SHT31;53438;48.898;2.308;2024-01-07T14:31:40;4.75;77.20
66582;SHT31;53438;48.898;2.308;2024-01-07T14:34:06;4.72;77.23
66582;SHT31;53438;48.898;2.308;2024-01-07T14:36:32;4.73;77.46
66582;SHT31;53438;48.898;2.308;2024-01-07T14:38:57;4.72;77.51
66582;SHT31;53438;48.898;2.308;2024-01-07T14:41:23;4.72;77.46
66582;SHT31;53438;48.898;2.308;2024-01-07T14:43:48;4.60;77.74
66582;SHT31;53438;48.898;2.308;2024-01-07T14:46:14;4.50;78.21
66582;SHT31;53438;48.898;2.308;2024-01-07T14:48:39;4.70;77.78
66582;SHT31;53438;48.898;2.308;2024-01-07T14:51:05;4.60;77.72
66582;SHT31;53438;48.898;2.308;2024-01-07T14:53:31;4.44;78.46
66582;SHT31;53438;48.898;2.308;2024-01-07T14:55:58;4.31;79.07
66582;SHT31;53438;48.898;2.308;2024-01-07T14:58:24;4.44;78.86
66582;SHT31;53438;48.898;2.308;2024-01-07T15:00:50;4.49;78.48
66582;SHT31;53438;48.898;2.308;2024-01-07T15:03:15;4.49;78.73
66582;SHT31;53438;48.898;2.308;2024-01-07T15:05:42;4.65;78.29
66582;SHT31;53438;48.898;2.308;2024-01-07T15:08:08;4.60;78.03
66582;SHT31;53438;48.898;2.308;2024-01-07T15:10:33;4.67;77.83
66582;SHT31;53438;48.898;2.308;2024-01-07T15:12:58;4.63;77.81
66582;SHT31;53438;48.898;2.308;2024-01-07T15:15:24;4.65;77.75
66582;SHT31;53438;48.898;2.308;2024-01-07T15:17:55;4.69;77.69
66582;SHT31;53438;48.898;2.308;2024-01-07T15:20:20;4.72;77.39
66582;SHT31;53438;48.898;2.308;2024-01-07T15:22:46;4.45;77.99
66582;SHT31;53438;48.898;2.308;2024-01-07T15:25:11;4.49;78.22
66582;SHT31;53438;48.898;2.308;2024-01-07T15:27:37;4.45;78.45
66582;SHT31;53438;48.898;2.308;2024-01-07T15:30:02;4.49;78.15
66582;SHT31;53438;48.898;2.308;2024-01-07T15:32:29;4.66;77.08
66582;SHT31;53438;48.898;2.308;2024-01-07T15:34:54;4.65;77.01
66582;SHT31;53438;48.898;2.308;2024-01-07T15:37:21;4.65;77.00
66582;SHT31;53438;48.898;2.308;2024-01-07T15:39:47;4.77;76.82
66582;SHT31;53438;48.898;2.308;2024-01-07T15:42:12;4.60;77.08
66582;SHT31;53438;48.898;2.308;2024-01-07T15:44:38;4.62;77.37
66582;SHT31;53438;48.898;2.308;2024-01-07T15:47:04;4.60;77.50
66582;SHT31;53438;48.898;2.308;2024-01-07T15:49:30;4.34;77.71
66582;SHT31;53438;48.898;2.308;2024-01-07T15:51:55;4.35;78.14
66582;SHT31;53438;48.898;2.308;2024-01-07T15:54:21;4.48;78.04
66582;SHT31;53438;48.898;2.308;2024-01-07T15:56:47;4.42;78.00
66582;SHT31;53438;48.898;2.308;2024-01-07T15:59:12;4.50;77.89
66582;SHT31;53438;48.898;2.308;2024-01-07T16:01:38;4.44;78.35
66582;SHT31;53438;48.898;2.308;2024-01-07T16:04:03;4.36;78.47
66582;SHT31;53438;48.898;2.308;2024-01-07T16:06:28;4.22;78.84
66582;SHT31;53438;48.898;2.308;2024-01-07T16:08:54;4.18;78.97
66582;SHT31;53438;48.898;2.308;2024-01-07T16:11:19;4.25;79.18
66582;SHT31;53438;48.898;2.308;2024-01-07T16:13:44;4.29;78.74
66582;SHT31;53438;48.898;2.308;2024-01-07T16:16:10;4.24;78.66
66582;SHT31;53438;48.898;2.308;2024-01-07T16:18:36;4.42;78.60
66582;SHT31;53438;48.898;2.308;2024-01-07T16:21:02;4.53;77.88
66582;SHT31;53438;48.898;2.308;2024-01-07T16:23:27;4.44;78.13
66582;SHT31;53438;48.898;2.308;2024-01-07T16:25:54;4.44;78.19
66582;SHT31;53438;48.898;2.308;2024-01-07T16:28:20;4.35;78.37
66582;SHT31;53438;48.898;2.308;2024-01-07T16:30:46;4.46;78.08
66582;SHT31;53438;48.898;2.308;2024-01-07T16:33:11;4.35;78.50
66582;SHT31;53438;48.898;2.308;2024-01-07T16:35:36;4.07;79.28
66582;SHT31;53438;48.898;2.308;2024-01-07T16:38:05;4.09;79.35
66582;SHT31;53438;48.898;2.308;2024-01-07T16:40:30;4.28;79.13
66582;SHT31;53438;48.898;2.308;2024-01-07T16:42:55;4.35;78.80
66582;SHT31;53438;48.898;2.308;2024-01-07T16:45:20;4.38;78.88
66582;SHT31;53438;48.898;2.308;2024-01-07T16:47:48;4.36;78.90
66582;SHT31;53438;48.898;2.308;2024-01-07T16:50:13;4.44;78.46
66582;SHT31;53438;48.898;2.308;2024-01-07T16:52:38;4.48;78.50
66582;SHT31;53438;48.898;2.308;2024-01-07T16:55:04;4.41;78.67
66582;SHT31;53438;48.898;2.308;2024-01-07T16:57:30;4.32;78.89
66582;SHT31;53438;48.898;2.308;2024-01-07T16:59:56;4.36;78.95
66582;SHT31;53438;48.898;2.308;2024-01-07T17:02:21;4.22;79.28
66582;SHT31;53438;48.898;2.308;2024-01-07T17:04:46;4.31;79.17
66582;SHT31;53438;48.898;2.308;2024-01-07T17:07:12;4.28;79.20
66582;SHT31;53438;48.898;2.308;2024-01-07T17:09:38;4.35;79.36
66582;SHT31;53438;48.898;2.308;2024-01-07T17:12:04;4.22;79.67
66582;SHT31;53438;48.898;2.308;2024-01-07T17:14:30;4.39;79.28
66582;SHT31;53438;48.898;2.308;2024-01-07T17:16:55;4.32;78.98
66582;SHT31;53438;48.898;2.308;2024-01-07T17:19:22;4.07;79.48
66582;SHT31;53438;48.898;2.308;2024-01-07T17:21:47;4.21;79.65
66582;SHT31;53438;48.898;2.308;2024-01-07T17:24:12;4.38;79.21
66582;SHT31;53438;48.898;2.308;2024-01-07T17:26:38;4.36;78.84
66582;SHT31;53438;48.898;2.308;2024-01-07T17:29:03;4.24;79.36
66582;SHT31;53438;48.898;2.308;2024-01-07T17:31:29;4.24;79.78
66582;SHT31;53438;48.898;2.308;2024-01-07T17:33:54;4.29;79.79
66582;SHT31;53438;48.898;2.308;2024-01-07T17:36:19;4.32;80.29
66582;SHT31;53438;48.898;2.308;2024-01-07T17:38:45;4.29;79.96
66582;SHT31;53438;48.898;2.308;2024-01-07T17:41:11;4.34;80.36
66582;SHT31;53438;48.898;2.308;2024-01-07T17:43:36;4.29;80.96
66582;SHT31;53438;48.898;2.308;2024-01-07T17:46:05;4.22;80.83
66582;SHT31;53438;48.898;2.308;2024-01-07T17:48:32;4.14;81.43
66582;SHT31;53438;48.898;2.308;2024-01-07T17:50:57;4.24;81.34
66582;SHT31;53438;48.898;2.308;2024-01-07T17:53:28;3.93;81.34
66582;SHT31;53438;48.898;2.308;2024-01-07T17:55:53;3.87;81.73
66582;SHT31;53438;48.898;2.308;2024-01-07T17:58:19;4.07;81.96
66582;SHT31;53438;48.898;2.308;2024-01-07T18:00:44;3.91;82.15
66582;SHT31;53438;48.898;2.308;2024-01-07T18:03:09;4.02;82.08
66582;SHT31;53438;48.898;2.308;2024-01-07T18:05:35;4.01;81.91
66582;SHT31;53438;48.898;2.308;2024-01-07T18:08:04;4.14;82.34
66582;SHT31;53438;48.898;2.308;2024-01-07T18:10:29;4.21;81.51
66582;SHT31;53438;48.898;2.308;2024-01-07T18:12:55;4.08;81.46
66582;SHT31;53438;48.898;2.308;2024-01-07T18:15:21;4.07;81.47
66582;SHT31;53438;48.898;2.308;2024-01-07T18:17:47;4.18;81.42
66582;SHT31;53438;48.898;2.308;2024-01-07T18:20:12;3.88;81.40
66582;SHT31;53438;48.898;2.308;2024-01-07T18:22:41;4.11;81.47
66582;SHT31;53438;48.898;2.308;2024-01-07T18:25:07;4.07;81.06
66582;SHT31;53438;48.898;2.308;2024-01-07T18:27:32;3.78;81.64
66582;SHT31;53438;48.898;2.308;2024-01-07T18:29:58;3.88;82.12
66582;SHT31;53438;48.898;2.308;2024-01-07T18:32:25;3.84;81.69
66582;SHT31;53438;48.898;2.308;2024-01-07T18:34:50;3.84;82.17
66582;SHT31;53438;48.898;2.308;2024-01-07T18:37:17;3.74;82.11
66582;SHT31;53438;48.898;2.308;2024-01-07T18:39:46;3.91;81.52
66582;SHT31;53438;48.898;2.308;2024-01-07T18:42:12;3.73;81.59